createdAt,value
2023-05-07T00:00:22.518Z,91.94
2023-05-07T00:02:49.332Z,92.34
2023-05-07T00:05:17.537Z,91.93
2023-05-07T00:07:44.127Z,92.63
2023-05-07T00:10:11.693Z,92.47
2023-05-07T00:12:38.511Z,92.31
2023-05-07T00:15:06.540Z,93.02
2023-05-07T00:17:34.242Z,92.92
2023-05-07T00:20:00.977Z,93.04
2023-05-07T00:22:27.454Z,92.61
2023-05-07T00:24:53.995Z,93.24
2023-05-07T00:27:20.691Z,93.57
2023-05-07T00:29:47.200Z,93.61
2023-05-07T00:32:13.785Z,93.18
2023-05-07T00:34:40.632Z,93.21
2023-05-07T00:37:08.418Z,93.09
2023-05-07T00:39:34.953Z,93.52
2023-05-07T00:42:01.665Z,93.01
2023-05-07T00:44:29.365Z,92.60
2023-05-07T00:46:56.927Z,92.88
2023-05-07T00:49:25.089Z,92.75
2023-05-07T00:51:52.027Z,92.65
2023-05-07T00:54:18.686Z,92.96
2023-05-07T00:56:45.899Z,92.46
2023-05-07T00:59:12.619Z,92.31
2023-05-07T01:01:39.300Z,92.23
2023-05-07T01:04:06.203Z,92.35
2023-05-07T01:06:33.492Z,92.18
2023-05-07T01:09:01.625Z,91.91
2023-05-07T01:11:28.873Z,91.68
2023-05-07T01:13:55.644Z,91.67
2023-05-07T01:16:22.908Z,92.47
2023-05-07T01:18:50.041Z,92.43
2023-05-07T01:21:18.569Z,92.23
2023-05-07T01:23:46.213Z,92.15
2023-05-07T01:26:12.727Z,92.16
2023-05-07T01:28:39.341Z,92.29
2023-05-07T01:31:07.228Z,92.58
2023-05-07T01:33:37.374Z,92.30
2023-05-07T01:36:07.362Z,92.05
2023-05-07T01:38:37.249Z,92.66
2023-05-07T01:41:04.528Z,92.35
2023-05-07T01:43:31.652Z,92.30
2023-05-07T01:46:00.190Z,93.11
2023-05-07T01:48:27.372Z,92.49
2023-05-07T01:50:54.566Z,92.18
2023-05-07T01:53:21.418Z,92.35
2023-05-07T01:55:48.158Z,91.96
2023-05-07T01:58:15.668Z,91.67
2023-05-07T02:00:42.252Z,91.87
2023-05-07T02:03:09.373Z,91.70
2023-05-07T02:05:45.733Z,91.98
2023-05-07T02:08:38.702Z,92.09
2023-05-07T02:11:06.014Z,92.02
2023-05-07T02:13:35.545Z,92.58
2023-05-07T02:16:03.505Z,92.29
2023-05-07T02:18:30.797Z,92.77
2023-05-07T02:20:57.381Z,92.89
2023-05-07T02:23:23.956Z,92.89
2023-05-07T02:25:50.396Z,93.05
2023-05-07T02:28:19.321Z,93.22
2023-05-07T02:30:51.578Z,93.09
2023-05-07T02:33:18.685Z,92.42
2023-05-07T02:35:45.164Z,93.38
2023-05-07T02:38:13.755Z,93.17
2023-05-07T02:40:41.365Z,92.60
2023-05-07T02:43:07.860Z,92.53
2023-05-07T02:45:34.795Z,92.63
2023-05-07T02:48:02.767Z,92.83
2023-05-07T02:50:29.336Z,92.40
2023-05-07T02:52:56.275Z,92.69
2023-05-07T02:55:22.798Z,93.71
2023-05-07T02:57:49.443Z,93.66
2023-05-07T03:00:20.703Z,93.86
2023-05-07T03:02:58.558Z,93.78
2023-05-07T03:05:25.096Z,93.43
2023-05-07T03:07:51.572Z,92.92
2023-05-07T03:10:18.149Z,93.24
2023-05-07T03:12:44.862Z,93.23
2023-05-07T03:15:15.680Z,93.94
2023-05-07T03:17:42.231Z,93.38
2023-05-07T03:20:11.089Z,93.22
2023-05-07T03:22:38.155Z,93.73
2023-05-07T03:25:05.436Z,93.98
2023-05-07T03:27:31.972Z,93.48
2023-05-07T03:29:58.551Z,93.91
2023-05-07T03:32:25.749Z,92.80
2023-05-07T03:34:52.444Z,93.55
2023-05-07T03:37:19.617Z,93.84
2023-05-07T03:39:46.082Z,93.10
2023-05-07T03:42:12.858Z,93.61
2023-05-07T03:44:39.876Z,93.45
2023-05-07T03:47:06.679Z,92.66
2023-05-07T03:49:33.212Z,92.72
2023-05-07T03:52:00.364Z,92.78
2023-05-07T03:54:26.990Z,91.67
2023-05-07T03:56:53.493Z,92.37
2023-05-07T03:59:20.196Z,92.01
2023-05-07T04:01:49.692Z,92.00
2023-05-07T04:04:18.602Z,92.38
2023-05-07T04:06:45.365Z,91.35
2023-05-07T04:09:12.036Z,91.66
2023-05-07T04:11:41.252Z,91.03
2023-05-07T04:14:09.910Z,90.69
2023-05-07T04:16:37.116Z,91.12
2023-05-07T04:19:04.351Z,90.55
2023-05-07T04:21:32.091Z,90.30
2023-05-07T04:23:59.291Z,90.27
2023-05-07T04:26:26.069Z,89.95
2023-05-07T04:28:52.631Z,90.19
2023-05-07T04:31:19.190Z,89.93
2023-05-07T04:33:49.828Z,89.33
2023-05-07T04:36:16.374Z,89.87
2023-05-07T04:38:49.348Z,89.51
2023-05-07T04:41:17.664Z,90.04
2023-05-07T04:43:44.458Z,89.58
2023-05-07T04:46:12.602Z,89.49
2023-05-07T04:48:40.338Z,89.79
2023-05-07T04:51:07.551Z,89.09
2023-05-07T04:53:34.181Z,88.77
2023-05-07T04:56:00.685Z,88.91
2023-05-07T04:58:33.139Z,88.63
2023-05-07T05:01:00.404Z,89.16
2023-05-07T05:03:27.135Z,87.90
2023-05-07T05:05:53.985Z,88.33
2023-05-07T05:08:22.432Z,87.51
2023-05-07T05:10:50.781Z,87.62
2023-05-07T05:13:17.676Z,87.15
2023-05-07T05:15:44.974Z,86.23
2023-05-07T05:18:11.649Z,86.25
2023-05-07T05:20:39.664Z,85.57
2023-05-07T05:23:07.322Z,85.86
2023-05-07T05:25:34.145Z,85.77
2023-05-07T05:28:02.305Z,85.99
2023-05-07T05:30:29.540Z,85.73
2023-05-07T05:32:56.103Z,84.96
2023-05-07T05:35:22.660Z,84.50
2023-05-07T05:37:49.489Z,84.37
2023-05-07T05:40:17.572Z,84.62
2023-05-07T05:42:44.119Z,84.40
2023-05-07T05:45:11.240Z,83.73
2023-05-07T05:47:40.110Z,84.04
2023-05-07T05:50:08.102Z,83.53
2023-05-07T05:52:34.661Z,83.71
2023-05-07T05:55:01.824Z,83.66
2023-05-07T05:57:28.854Z,84.34
2023-05-07T05:59:56.049Z,83.89
2023-05-07T06:02:24.292Z,83.44
2023-05-07T06:04:51.260Z,83.46
2023-05-07T06:07:20.300Z,83.54
2023-05-07T06:09:46.772Z,83.12
2023-05-07T06:12:13.563Z,83.00
2023-05-07T06:14:41.656Z,83.06
2023-05-07T06:17:08.194Z,82.94
2023-05-07T06:19:34.678Z,83.20
2023-05-07T06:22:02.743Z,82.34
2023-05-07T06:24:30.967Z,82.61
2023-05-07T06:26:59.331Z,81.55
2023-05-07T06:29:26.987Z,82.44
2023-05-07T06:31:54.626Z,82.51
2023-05-07T06:34:22.323Z,82.50
2023-05-07T06:36:48.849Z,82.59
2023-05-07T06:39:25.557Z,82.28
2023-05-07T06:41:52.730Z,81.46
2023-05-07T06:44:25.725Z,81.08
2023-05-07T06:47:06.360Z,80.85
2023-05-07T06:49:33.522Z,80.79
2023-05-07T06:52:00.137Z,80.92
2023-05-07T06:54:27.165Z,80.82
2023-05-07T06:56:53.685Z,81.30
2023-05-07T06:59:20.466Z,80.53
2023-05-07T07:01:47.594Z,80.43
2023-05-07T07:04:14.702Z,80.14
2023-05-07T07:06:43.126Z,79.25
2023-05-07T07:09:12.807Z,78.75
2023-05-07T07:11:40.421Z,79.33
2023-05-07T07:14:07.672Z,79.66
2023-05-07T07:16:40.055Z,79.22
2023-05-07T07:19:06.611Z,78.54
2023-05-07T07:21:33.355Z,78.99
2023-05-07T07:23:59.927Z,79.14
2023-05-07T07:26:26.556Z,79.56
2023-05-07T07:28:53.148Z,78.65
2023-05-07T07:31:22.107Z,78.53
2023-05-07T07:33:52.938Z,78.63
2023-05-07T07:36:20.997Z,78.40
2023-05-07T07:38:48.779Z,78.91
2023-05-07T07:41:17.201Z,79.02
2023-05-07T07:43:44.296Z,79.03
2023-05-07T07:46:11.153Z,79.01
2023-05-07T07:48:37.789Z,79.11
2023-05-07T07:51:04.825Z,78.93
2023-05-07T07:53:32.197Z,79.35
2023-05-07T07:55:59.664Z,78.63
2023-05-07T07:58:29.074Z,78.17
2023-05-07T08:00:56.972Z,78.20
2023-05-07T08:03:24.567Z,77.75
2023-05-07T08:05:55.018Z,78.20
2023-05-07T08:08:22.354Z,77.90
2023-05-07T08:10:51.346Z,76.31
2023-05-07T08:13:26.133Z,76.61
2023-05-07T08:15:53.492Z,76.93
2023-05-07T08:18:20.349Z,76.27
2023-05-07T08:20:48.035Z,75.46
2023-05-07T08:23:18.809Z,75.48
2023-05-07T08:25:46.464Z,75.08
2023-05-07T08:28:13.566Z,72.99
2023-05-07T08:30:41.565Z,73.77
2023-05-07T08:33:10.205Z,73.43
2023-05-07T08:35:36.982Z,73.76
2023-05-07T08:38:04.471Z,73.44
2023-05-07T08:40:37.410Z,72.66
2023-05-07T08:43:05.882Z,71.41
2023-05-07T08:45:34.307Z,71.52
2023-05-07T08:48:03.981Z,71.77
2023-05-07T08:50:37.415Z,70.92
2023-05-07T08:53:05.937Z,71.05
2023-05-07T08:55:32.709Z,69.62
2023-05-07T08:58:01.210Z,68.63
2023-05-07T09:00:29.551Z,68.28
2023-05-07T09:02:56.949Z,68.54
2023-05-07T09:05:23.634Z,68.14
2023-05-07T09:07:53.992Z,68.40
2023-05-07T09:10:22.823Z,67.27
2023-05-07T09:12:50.606Z,67.18
2023-05-07T09:15:19.255Z,67.42
2023-05-07T09:17:46.084Z,66.29
2023-05-07T09:20:13.024Z,66.45
2023-05-07T09:22:40.685Z,65.67
2023-05-07T09:25:11.930Z,65.21
2023-05-07T09:27:39.658Z,65.33
2023-05-07T09:30:08.074Z,65.76
2023-05-07T09:32:39.032Z,65.23
2023-05-07T09:35:07.285Z,64.51
2023-05-07T09:37:34.725Z,64.00
2023-05-07T09:40:02.193Z,64.27
2023-05-07T09:42:30.728Z,63.81
2023-05-07T09:45:01.069Z,63.60
2023-05-07T09:47:35.992Z,63.21
2023-05-07T09:50:06.985Z,61.80
2023-05-07T09:52:36.278Z,61.91
2023-05-07T09:55:07.028Z,61.18
2023-05-07T09:57:34.830Z,60.64
2023-05-07T10:00:06.745Z,60.83
2023-05-07T10:02:53.426Z,60.99
2023-05-07T10:05:28.368Z,59.01
2023-05-07T10:07:58.321Z,60.14
2023-05-07T10:10:26.511Z,59.38
2023-05-07T10:12:54.034Z,59.74
2023-05-07T10:15:30.227Z,59.76
2023-05-07T10:17:59.018Z,59.35
2023-05-07T10:20:28.175Z,59.31
2023-05-07T10:22:58.122Z,59.36
2023-05-07T10:25:33.417Z,59.53
2023-05-07T10:28:11.155Z,59.02
2023-05-07T10:31:30.662Z,59.53
2023-05-07T10:33:58.989Z,58.96
2023-05-07T10:36:27.754Z,59.44
2023-05-07T10:38:54.630Z,60.33
2023-05-07T10:41:22.046Z,59.69
2023-05-07T10:43:49.919Z,59.24
2023-05-07T10:46:29.834Z,58.81
2023-05-07T10:49:15.249Z,57.87
2023-05-07T10:52:18.097Z,58.29
2023-05-07T10:55:22.428Z,58.60
2023-05-07T10:58:31.263Z,58.21
2023-05-07T11:01:53.038Z,58.06
2023-05-07T11:04:27.762Z,57.92
2023-05-07T11:07:28.969Z,57.79
2023-05-07T11:10:05.628Z,58.12
2023-05-07T11:12:56.349Z,56.76
2023-05-07T11:15:40.692Z,56.50
2023-05-07T11:18:18.420Z,56.73
2023-05-07T11:20:54.435Z,57.17
2023-05-07T11:23:50.077Z,56.98
2023-05-07T11:26:26.526Z,56.44
2023-05-07T11:28:55.123Z,56.93
2023-05-07T11:31:29.414Z,56.77
2023-05-07T11:33:59.352Z,57.42
2023-05-07T11:36:27.013Z,56.51
2023-05-07T11:38:55.679Z,56.69
2023-05-07T11:41:22.941Z,57.74
2023-05-07T11:43:57.750Z,58.49
2023-05-07T11:46:24.722Z,59.11
2023-05-07T11:48:51.800Z,58.67
2023-05-07T11:51:23.771Z,58.52
2023-05-07T11:53:51.422Z,58.71
2023-05-07T11:56:19.663Z,58.99
2023-05-07T11:58:47.604Z,59.14
2023-05-07T12:01:16.710Z,59.02
2023-05-07T12:03:46.902Z,58.97
2023-05-07T12:06:16.244Z,59.00
2023-05-07T12:08:45.751Z,60.04
2023-05-07T12:11:23.678Z,59.41
2023-05-07T12:13:52.472Z,60.21
2023-05-07T12:16:20.351Z,59.19
2023-05-07T12:18:47.705Z,59.19
2023-05-07T12:21:14.344Z,59.10
2023-05-07T12:23:41.066Z,58.92
2023-05-07T12:26:08.014Z,58.97
2023-05-07T12:28:39.948Z,58.43
2023-05-07T12:31:07.341Z,58.25
2023-05-07T12:33:36.307Z,58.35
2023-05-07T12:36:08.647Z,57.55
2023-05-07T12:38:39.878Z,57.61
2023-05-07T12:41:08.355Z,57.32
2023-05-07T12:43:35.341Z,57.40
2023-05-07T12:46:05.781Z,56.36
2023-05-07T12:48:34.392Z,55.35
2023-05-07T12:51:02.620Z,56.05
2023-05-07T12:53:32.497Z,55.56
2023-05-07T12:56:01.174Z,56.38
2023-05-07T12:58:34.052Z,56.45
2023-05-07T13:01:02.744Z,55.36
2023-05-07T13:03:31.258Z,54.80
2023-05-07T13:06:01.260Z,55.11
2023-05-07T13:08:30.724Z,54.73
2023-05-07T13:10:59.694Z,53.85
2023-05-07T13:13:27.495Z,54.46
2023-05-07T13:15:55.761Z,53.72
2023-05-07T13:18:22.355Z,54.07
2023-05-07T13:20:48.913Z,54.06
2023-05-07T13:23:15.606Z,54.58
2023-05-07T13:25:42.192Z,54.39
2023-05-07T13:28:11.181Z,52.23
2023-05-07T13:30:38.494Z,52.86
2023-05-07T13:33:05.056Z,52.32
2023-05-07T13:35:32.119Z,52.93
2023-05-07T13:37:58.667Z,52.21
2023-05-07T13:40:25.537Z,52.10
2023-05-07T13:42:52.125Z,52.18
2023-05-07T13:45:19.728Z,52.32
2023-05-07T13:47:47.783Z,51.37
2023-05-07T13:50:14.619Z,51.41
2023-05-07T13:52:46.466Z,50.19
2023-05-07T13:55:13.728Z,51.40
2023-05-07T13:57:40.547Z,50.62
2023-05-07T14:00:07.728Z,50.83
2023-05-07T14:02:41.902Z,50.33
2023-05-07T14:05:09.932Z,50.39
2023-05-07T14:07:36.993Z,51.16
2023-05-07T14:10:04.034Z,51.90
2023-05-07T14:12:30.686Z,51.02
2023-05-07T14:14:57.460Z,51.34
2023-05-07T14:17:26.369Z,51.74
2023-05-07T14:19:56.844Z,52.13
2023-05-07T14:22:23.672Z,51.78
2023-05-07T14:25:05.373Z,52.48
2023-05-07T14:27:33.485Z,52.45
2023-05-07T14:29:59.987Z,51.41
2023-05-07T14:32:26.444Z,52.26
2023-05-07T14:34:52.949Z,52.50
2023-05-07T14:37:20.995Z,52.77
2023-05-07T14:39:50.673Z,53.18
2023-05-07T14:42:18.308Z,51.81
2023-05-07T14:44:47.490Z,51.75
2023-05-07T14:47:14.499Z,52.11
2023-05-07T14:49:42.078Z,52.14
2023-05-07T14:52:11.203Z,52.53
2023-05-07T14:54:39.179Z,53.01
2023-05-07T14:57:07.806Z,53.29
2023-05-07T14:59:34.869Z,53.95
2023-05-07T15:02:03.793Z,53.50
2023-05-07T15:04:32.218Z,54.26
2023-05-07T15:06:58.769Z,54.79
2023-05-07T15:09:25.243Z,54.49
2023-05-07T15:11:51.833Z,52.96
2023-05-07T15:14:18.994Z,52.99
2023-05-07T15:16:46.691Z,51.83
2023-05-07T15:19:15.702Z,51.02
2023-05-07T15:21:42.209Z,50.78
2023-05-07T15:24:10.211Z,51.60
2023-05-07T15:26:38.926Z,51.52
2023-05-07T15:29:18.758Z,51.98
2023-05-07T15:31:46.845Z,50.97
2023-05-07T15:34:17.888Z,50.56
2023-05-07T15:36:44.757Z,50.04
2023-05-07T15:39:11.721Z,49.45
2023-05-07T15:41:38.325Z,48.31
2023-05-07T15:44:05.148Z,45.88
2023-05-07T15:46:31.673Z,44.13
2023-05-07T15:48:58.608Z,43.40
2023-05-07T15:51:25.162Z,43.54
2023-05-07T15:53:53.437Z,43.76
2023-05-07T15:56:20.026Z,45.22
2023-05-07T15:58:46.722Z,45.94
2023-05-07T16:01:13.304Z,45.78
2023-05-07T16:03:41.334Z,46.13
2023-05-07T16:06:08.478Z,46.75
2023-05-07T16:08:34.990Z,47.55
2023-05-07T16:11:01.629Z,48.04
2023-05-07T16:13:28.182Z,48.02
2023-05-07T16:15:59.030Z,48.80
2023-05-07T16:18:25.460Z,45.43
2023-05-07T16:20:52.146Z,44.16
2023-05-07T16:23:19.184Z,45.30
2023-05-07T16:25:45.872Z,46.58
2023-05-07T16:28:12.462Z,47.43
2023-05-07T16:30:39.231Z,47.96
2023-05-07T16:33:06.037Z,48.34
2023-05-07T16:35:32.610Z,48.75
2023-05-07T16:37:59.191Z,49.00
2023-05-07T16:40:26.469Z,49.12
2023-05-07T16:42:55.318Z,49.64
2023-05-07T16:45:24.094Z,50.71
2023-05-07T16:47:50.922Z,51.12
2023-05-07T16:50:17.467Z,52.19
2023-05-07T16:52:46.227Z,52.14
2023-05-07T16:55:13.344Z,52.17
2023-05-07T16:57:42.655Z,51.86
2023-05-07T17:00:11.665Z,51.99
2023-05-07T17:02:38.407Z,52.32
2023-05-07T17:05:06.578Z,53.25
2023-05-07T17:07:34.883Z,53.57
2023-05-07T17:10:02.168Z,53.72
2023-05-07T17:12:29.338Z,52.85
2023-05-07T17:14:55.918Z,51.73
2023-05-07T17:17:27.276Z,50.48
2023-05-07T17:19:54.755Z,49.53
2023-05-07T17:22:21.848Z,48.33
2023-05-07T17:24:48.534Z,48.23
2023-05-07T17:27:16.281Z,48.53
2023-05-07T17:29:42.782Z,48.11
2023-05-07T17:32:09.442Z,48.31
2023-05-07T17:34:36.052Z,48.63
2023-05-07T17:37:04.525Z,49.25
2023-05-07T17:39:32.238Z,49.61
2023-05-07T17:41:59.075Z,49.85
2023-05-07T17:44:26.069Z,50.01
2023-05-07T17:46:52.753Z,50.46
2023-05-07T17:49:19.638Z,51.19
2023-05-07T17:51:53.324Z,51.88
2023-05-07T17:54:21.642Z,52.29
2023-05-07T17:56:48.165Z,53.10
2023-05-07T17:59:14.664Z,53.63
2023-05-07T18:01:42.621Z,53.77
2023-05-07T18:04:09.278Z,54.61
2023-05-07T18:06:36.062Z,55.31
2023-05-07T18:09:02.837Z,55.52
2023-05-07T18:11:29.578Z,56.24
2023-05-07T18:13:56.072Z,56.69
2023-05-07T18:16:22.871Z,57.09
2023-05-07T18:18:50.116Z,57.29
2023-05-07T18:21:20.472Z,57.44
2023-05-07T18:23:48.317Z,58.19
2023-05-07T18:26:16.676Z,58.53
2023-05-07T18:28:43.318Z,59.26
2023-05-07T18:31:10.979Z,59.42
2023-05-07T18:33:37.480Z,60.42
2023-05-07T18:36:04.345Z,60.35
2023-05-07T18:38:30.938Z,60.78
2023-05-07T18:41:02.969Z,61.72
2023-05-07T18:43:29.758Z,62.04
2023-05-07T18:45:58.379Z,62.79
2023-05-07T18:48:25.039Z,62.96
2023-05-07T18:50:51.771Z,63.64
2023-05-07T18:53:18.299Z,64.16
2023-05-07T18:55:49.997Z,64.53
2023-05-07T18:58:20.219Z,65.02
2023-05-07T19:00:47.752Z,65.52
2023-05-07T19:03:17.192Z,66.14
2023-05-07T19:05:45.175Z,66.60
2023-05-07T19:08:11.903Z,66.94
2023-05-07T19:10:38.825Z,67.36
2023-05-07T19:13:05.966Z,68.01
2023-05-07T19:15:32.628Z,68.29
2023-05-07T19:17:59.394Z,68.97
2023-05-07T19:20:26.055Z,69.30
2023-05-07T19:22:52.619Z,69.77
2023-05-07T19:25:19.154Z,70.25
2023-05-07T19:27:47.248Z,70.61
2023-05-07T19:30:14.261Z,71.10
2023-05-07T19:32:40.867Z,71.58
2023-05-07T19:35:07.968Z,72.18
2023-05-07T19:37:34.573Z,72.84
2023-05-07T19:40:05.040Z,73.21
2023-05-07T19:42:34.036Z,73.55
2023-05-07T19:45:00.706Z,74.06
2023-05-07T19:47:27.377Z,74.41
2023-05-07T19:49:53.946Z,74.48
2023-05-07T19:52:20.453Z,75.35
2023-05-07T19:54:47.423Z,75.61
2023-05-07T19:57:14.303Z,75.78
2023-05-07T19:59:40.967Z,75.76
2023-05-07T20:02:07.491Z,76.26
2023-05-07T20:04:37.911Z,76.40
2023-05-07T20:07:05.427Z,76.57
2023-05-07T20:09:31.970Z,76.65
2023-05-07T20:11:58.443Z,76.89
2023-05-07T20:14:25.010Z,77.07
2023-05-07T20:16:51.440Z,77.04
2023-05-07T20:19:18.663Z,77.37
2023-05-07T20:21:45.224Z,77.81
2023-05-07T20:24:11.745Z,77.81
2023-05-07T20:26:38.690Z,77.70
2023-05-07T20:29:05.557Z,78.18
2023-05-07T20:31:35.002Z,78.08
2023-05-07T20:34:01.898Z,77.99
2023-05-07T20:36:28.825Z,78.43
2023-05-07T20:38:56.099Z,78.16
2023-05-07T20:41:24.985Z,78.89
2023-05-07T20:43:51.506Z,79.07
2023-05-07T20:46:20.734Z,78.56
2023-05-07T20:48:47.207Z,79.61
2023-05-07T20:51:15.779Z,79.55
2023-05-07T20:53:44.895Z,79.56
2023-05-07T20:56:13.370Z,79.79
2023-05-07T20:58:39.814Z,79.56
2023-05-07T21:01:06.847Z,80.63
2023-05-07T21:03:33.313Z,80.63
2023-05-07T21:06:03.077Z,80.64
2023-05-07T21:08:30.204Z,80.98
2023-05-07T21:10:56.965Z,81.77
2023-05-07T21:13:23.925Z,82.20
2023-05-07T21:15:50.447Z,81.63
2023-05-07T21:18:18.900Z,82.26
2023-05-07T21:20:45.522Z,82.29
2023-05-07T21:23:12.048Z,82.75
2023-05-07T21:25:40.999Z,83.36
2023-05-07T21:28:08.419Z,82.97
2023-05-07T21:30:36.019Z,83.94
2023-05-07T21:33:02.875Z,84.00
2023-05-07T21:35:29.382Z,84.01
2023-05-07T21:37:55.923Z,84.17
2023-05-07T21:40:22.409Z,84.57
2023-05-07T21:42:48.888Z,85.16
2023-05-07T21:45:15.578Z,85.22
2023-05-07T21:47:42.143Z,85.56
2023-05-07T21:50:09.143Z,85.32
2023-05-07T21:52:35.607Z,85.36
2023-05-07T21:55:02.836Z,85.76
2023-05-07T21:57:29.493Z,85.79
2023-05-07T21:59:56.023Z,85.32
2023-05-07T22:02:22.744Z,85.75
2023-05-07T22:04:49.423Z,85.76
2023-05-07T22:07:16.787Z,85.89
2023-05-07T22:09:43.233Z,86.01
2023-05-07T22:12:10.153Z,86.27
2023-05-07T22:14:36.739Z,86.48
2023-05-07T22:17:03.279Z,87.52
2023-05-07T22:19:29.715Z,87.65
2023-05-07T22:21:56.219Z,87.87
2023-05-07T22:24:23.088Z,87.80
2023-05-07T22:26:49.714Z,87.96
2023-05-07T22:29:16.342Z,87.14
2023-05-07T22:31:42.945Z,88.29
2023-05-07T22:34:09.470Z,88.24
2023-05-07T22:36:35.960Z,88.32
2023-05-07T22:39:03.452Z,88.41
2023-05-07T22:41:30.010Z,89.01
2023-05-07T22:43:56.654Z,88.82
2023-05-07T22:46:23.271Z,89.08
2023-05-07T22:48:49.912Z,88.60
2023-05-07T22:51:16.365Z,88.89
2023-05-07T22:53:42.803Z,88.58
2023-05-07T22:56:09.641Z,88.63
2023-05-07T22:58:36.199Z,88.66
2023-05-07T23:01:02.933Z,88.78
2023-05-07T23:03:29.821Z,88.64
2023-05-07T23:05:56.303Z,88.74
2023-05-07T23:08:23.290Z,88.61
2023-05-07T23:10:49.871Z,88.90
2023-05-07T23:13:17.532Z,89.03
2023-05-07T23:15:44.240Z,89.48
2023-05-07T23:18:10.809Z,89.13
2023-05-07T23:20:37.373Z,88.92
2023-05-07T23:23:04.093Z,88.96
2023-05-07T23:25:30.635Z,89.30
2023-05-07T23:27:57.105Z,89.09
2023-05-07T23:30:23.586Z,88.57
2023-05-07T23:32:50.141Z,89.06
2023-05-07T23:35:16.626Z,88.54
2023-05-07T23:37:43.087Z,88.94
2023-05-07T23:40:09.684Z,89.12
2023-05-07T23:42:36.538Z,89.29
2023-05-07T23:45:04.056Z,88.95
2023-05-07T23:47:30.636Z,89.74
2023-05-07T23:49:57.186Z,89.37
2023-05-07T23:52:23.658Z,89.39
2023-05-07T23:54:50.127Z,89.38
2023-05-07T23:57:16.745Z,89.41
2023-05-07T23:59:43.200Z,89.26
